Time;durP1;ratioP1;P1;durP2;ratioP2;P2;SDS_P1;SDS_P2;PMS_P1;PMS_P2;Temp;Humidity;BMP_temperature;BMP_pressure;BME280_temperature;BME280_humidity;BME280_pressure;Samples;Min_cycle;Max_cycle;Signal;HPM_P1;HPM_P2
2023/09/08 00:02:12;;;;;;;11.30;6.85;;;;;;;;;;5070655;28;20112;-62
2023/09/08 00:04:39;;;;;;;10.00;6.78;;;;;;;;;;5075600;28;20127;-62
2023/09/08 00:07:05;;;;;;;10.50;6.47;;;;;;;;;;5040576;28;20128;-62
2023/09/08 00:09:32;;;;;;;10.40;7.20;;;;;;;;;;5036442;28;20046;-62
2023/09/08 00:11:59;;;;;;;9.98;6.50;;;;;;;;;;5051144;28;20045;-62
2023/09/08 00:14:25;;;;;;;8.57;6.20;;;;;;;;;;5073016;28;20055;-62
2023/09/08 00:16:55;;;;;;;8.32;5.90;;;;;;;;;;5055464;28;20465;-61
2023/09/08 00:19:22;;;;;;;9.10;6.10;;;;;;;;;;5048561;28;20057;-62
2023/09/08 00:21:49;;;;;;;8.85;6.32;;;;;;;;;;5047136;28;20760;-62
2023/09/08 00:24:16;;;;;;;9.05;5.90;;;;;;;;;;5055968;28;20041;-62
2023/09/08 00:26:42;;;;;;;8.40;6.22;;;;;;;;;;5056054;28;20459;-61
2023/09/08 00:29:09;;;;;;;8.88;5.88;;;;;;;;;;5053918;28;20044;-62
2023/09/08 00:31:35;;;;;;;13.57;6.57;;;;;;;;;;5040172;28;20045;-62
2023/09/08 00:34:06;;;;;;;8.85;6.28;;;;;;;;;;5046392;28;20429;-62
2023/09/08 00:36:33;;;;;;;9.13;6.22;;;;;;;;;;5035023;28;20049;-62
2023/09/08 00:38:59;;;;;;;9.43;6.28;;;;;;;;;;5046258;28;20482;-62
2023/09/08 00:41:26;;;;;;;9.15;6.63;;;;;;;;;;5036927;28;20049;-62
2023/09/08 00:43:53;;;;;;;8.75;6.57;;;;;;;;;;5067263;22;20051;-56
2023/09/08 00:46:20;;;;;;;13.38;7.43;;;;;;;;;;5072460;28;20041;-58
2023/09/08 00:48:46;;;;;;;14.32;7.63;;;;;;;;;;5072019;28;20052;-56
2023/09/08 00:51:15;;;;;;;9.65;6.47;;;;;;;;;;5071718;28;20044;-57
2023/09/08 00:53:42;;;;;;;8.65;6.88;;;;;;;;;;5066195;28;20054;-57
2023/09/08 00:56:10;;;;;;;10.27;6.93;;;;;;;;;;5066721;28;20140;-59
2023/09/08 00:58:37;;;;;;;8.85;6.60;;;;;;;;;;5071402;28;20105;-59
2023/09/08 01:01:05;;;;;;;9.55;6.18;;;;;;;;;;5065460;28;20084;-58
2023/09/08 01:03:32;;;;;;;11.40;7.03;;;;;;;;;;5052507;28;20131;-56
2023/09/08 01:05:59;;;;;;;9.52;6.65;;;;;;;;;;5065690;28;20059;-58
2023/09/08 01:08:27;;;;;;;10.82;7.18;;;;;;;;;;5071865;28;20048;-58
2023/09/08 01:10:54;;;;;;;14.07;7.75;;;;;;;;;;5071920;28;20055;-61
2023/09/08 01:13:21;;;;;;;10.32;7.15;;;;;;;;;;5071768;28;20052;-59
2023/09/08 01:15:49;;;;;;;11.00;7.05;;;;;;;;;;5071901;28;20053;-56
2023/09/08 01:18:15;;;;;;;10.55;7.05;;;;;;;;;;5057209;28;20041;-59
2023/09/08 01:21:03;;;;;;;8.45;6.00;;;;;;;;;;5051964;28;20053;-59
2023/09/08 01:23:45;;;;;;;8.23;6.38;;;;;;;;;;5051769;28;20131;-58
2023/09/08 01:26:18;;;;;;;8.60;6.43;;;;;;;;;;5059065;28;20052;-59
2023/09/08 01:28:46;;;;;;;8.88;6.53;;;;;;;;;;5071172;28;20048;-59
2023/09/08 01:31:13;;;;;;;11.30;6.65;;;;;;;;;;5071562;28;20122;-58
2023/09/08 01:33:41;;;;;;;9.50;7.10;;;;;;;;;;5071726;28;20214;-58
2023/09/08 01:36:08;;;;;;;10.02;6.45;;;;;;;;;;5071694;28;20143;-58
2023/09/08 01:38:35;;;;;;;9.95;6.43;;;;;;;;;;5071354;28;20053;-55
2023/09/08 01:41:02;;;;;;;10.35;7.20;;;;;;;;;;5071336;28;20072;-55
2023/09/08 01:43:30;;;;;;;10.50;7.13;;;;;;;;;;5071362;28;20489;-57
2023/09/08 01:45:56;;;;;;;8.93;6.20;;;;;;;;;;5071523;28;20045;-59
2023/09/08 01:48:23;;;;;;;8.98;6.70;;;;;;;;;;5071513;28;20409;-59
2023/09/08 01:50:50;;;;;;;9.25;6.40;;;;;;;;;;5071288;28;21680;-59
2023/09/08 01:53:16;;;;;;;9.05;6.28;;;;;;;;;;5069593;28;20084;-58
2023/09/08 01:55:43;;;;;;;8.85;6.60;;;;;;;;;;5051192;28;20088;-58
2023/09/08 01:58:09;;;;;;;10.02;6.82;;;;;;;;;;5051617;28;20053;-58
2023/09/08 02:00:38;;;;;;;9.48;7.22;;;;;;;;;;5051470;28;20410;-56
2023/09/08 02:03:05;;;;;;;10.82;6.47;;;;;;;;;;5051307;28;20136;-58
2023/09/08 02:05:31;;;;;;;9.48;7.05;;;;;;;;;;5054092;28;20052;-60
2023/09/08 02:07:58;;;;;;;10.23;6.70;;;;;;;;;;5055053;28;20064;-56
2023/09/08 02:10:24;;;;;;;10.40;6.65;;;;;;;;;;5055076;28;20048;-60
2023/09/08 02:12:51;;;;;;;9.00;6.90;;;;;;;;;;5055325;28;20048;-54
2023/09/08 02:15:18;;;;;;;22.40;14.43;;;;;;;;;;5055233;28;20045;-58
2023/09/08 02:17:46;;;;;;;21.27;13.80;;;;;;;;;;5055170;28;20479;-55
2023/09/08 02:20:12;;;;;;;12.02;7.55;;;;;;;;;;5055149;28;20051;-57
2023/09/08 02:22:39;;;;;;;11.80;7.65;;;;;;;;;;5055418;28;20067;-57
2023/09/08 02:25:06;;;;;;;9.48;6.80;;;;;;;;;;5054765;28;20052;-58
2023/09/08 02:27:33;;;;;;;8.60;6.93;;;;;;;;;;5055181;28;20513;-58
2023/09/08 02:29:59;;;;;;;9.63;7.30;;;;;;;;;;5054587;28;20045;-60
2023/09/08 02:32:26;;;;;;;9.77;7.43;;;;;;;;;;5054755;28;20055;-59
2023/09/08 02:34:55;;;;;;;11.73;7.65;;;;;;;;;;5054936;28;20045;-57
2023/09/08 02:37:21;;;;;;;10.35;7.15;;;;;;;;;;5054822;28;20134;-59
2023/09/08 02:39:48;;;;;;;9.10;7.38;;;;;;;;;;5054943;28;20416;-54
2023/09/08 02:42:15;;;;;;;10.60;7.10;;;;;;;;;;5054863;28;20056;-58
2023/09/08 02:44:41;;;;;;;9.85;7.78;;;;;;;;;;5054573;28;20084;-59
2023/09/08 02:47:08;;;;;;;9.85;7.38;;;;;;;;;;5054579;28;20101;-59
2023/09/08 02:49:34;;;;;;;10.20;7.30;;;;;;;;;;5054326;28;20048;-62
2023/09/08 02:52:02;;;;;;;9.35;7.53;;;;;;;;;;5054440;28;20127;-59
2023/09/08 02:54:29;;;;;;;9.25;6.88;;;;;;;;;;5054357;28;20064;-61
2023/09/08 02:56:56;;;;;;;11.38;7.25;;;;;;;;;;5054394;28;20099;-58
2023/09/08 02:59:22;;;;;;;9.88;7.07;;;;;;;;;;5054524;28;20458;-58
2023/09/08 03:01:49;;;;;;;11.48;8.05;;;;;;;;;;5070597;28;20051;-56
2023/09/08 03:04:16;;;;;;;12.32;7.57;;;;;;;;;;5063684;28;20449;-59
2023/09/08 03:06:42;;;;;;;11.02;8.10;;;;;;;;;;5054219;28;20132;-57
2023/09/08 03:09:10;;;;;;;10.32;7.72;;;;;;;;;;5071193;28;20052;-58
2023/09/08 03:11:37;;;;;;;11.52;8.32;;;;;;;;;;5073918;28;20041;-59
2023/09/08 03:14:04;;;;;;;12.30;8.40;;;;;;;;;;5074106;28;20056;-60
2023/09/08 03:16:31;;;;;;;13.85;8.32;;;;;;;;;;5073185;28;20144;-59
2023/09/08 03:18:58;;;;;;;10.90;7.88;;;;;;;;;;5073788;28;20045;-57
2023/09/08 03:21:25;;;;;;;9.88;7.78;;;;;;;;;;5055744;28;20057;-60
2023/09/08 03:23:51;;;;;;;12.75;8.10;;;;;;;;;;5053628;28;20041;-60
2023/09/08 03:26:19;;;;;;;14.32;8.95;;;;;;;;;;5053640;28;20051;-60
2023/09/08 03:28:46;;;;;;;10.68;8.05;;;;;;;;;;5053766;28;20099;-58
2023/09/08 03:31:13;;;;;;;12.15;9.60;;;;;;;;;;5053699;28;20413;-59
2023/09/08 03:33:38;;;;;;;11.00;8.35;;;;;;;;;;5053879;28;20049;-61
2023/09/08 03:36:05;;;;;;;12.80;9.30;;;;;;;;;;5053855;28;20151;-57
2023/09/08 03:38:32;;;;;;;12.77;9.07;;;;;;;;;;5053760;28;20124;-57
2023/09/08 03:40:58;;;;;;;11.30;8.68;;;;;;;;;;5053650;28;20071;-56
2023/09/08 03:43:26;;;;;;;12.93;8.93;;;;;;;;;;5053602;28;20383;-56
2023/09/08 03:45:53;;;;;;;16.67;10.20;;;;;;;;;;5053576;28;20045;-58
2023/09/08 03:48:19;;;;;;;14.10;9.15;;;;;;;;;;5053305;28;20414;-59
2023/09/08 03:50:46;;;;;;;11.75;8.65;;;;;;;;;;5053406;28;20045;-59
2023/09/08 03:53:13;;;;;;;12.88;9.35;;;;;;;;;;5053385;28;20044;-59
2023/09/08 03:55:39;;;;;;;14.40;9.45;;;;;;;;;;5053154;28;20053;-57
2023/09/08 03:58:06;;;;;;;11.75;8.80;;;;;;;;;;5072732;28;20413;-59
2023/09/08 04:00:35;;;;;;;14.38;8.73;;;;;;;;;;5073124;28;20139;-58
2023/09/08 04:03:02;;;;;;;11.50;8.80;;;;;;;;;;5073214;28;20123;-60
2023/09/08 04:05:29;;;;;;;14.05;8.75;;;;;;;;;;5072351;28;20055;-59
2023/09/08 04:07:55;;;;;;;11.07;8.98;;;;;;;;;;5072982;28;20087;-54
2023/09/08 04:10:22;;;;;;;12.75;8.90;;;;;;;;;;5072579;28;20051;-59
2023/09/08 04:13:08;;;;;;;13.43;9.13;;;;;;;;;;5073185;28;20055;-59
2023/09/08 04:15:36;;;;;;;12.77;9.50;;;;;;;;;;5060830;28;20049;-53
2023/09/08 04:18:03;;;;;;;13.38;8.63;;;;;;;;;;5053223;28;20047;-57
2023/09/08 04:20:30;;;;;;;15.07;8.32;;;;;;;;;;5052916;28;20049;-57
2023/09/08 04:22:57;;;;;;;12.60;8.85;;;;;;;;;;5052955;28;20052;-59
2023/09/08 04:25:24;;;;;;;15.45;8.93;;;;;;;;;;5052803;28;20059;-58
2023/09/08 04:27:51;;;;;;;13.70;8.48;;;;;;;;;;5064260;28;20060;-57
2023/09/08 04:30:18;;;;;;;11.10;8.18;;;;;;;;;;5072794;28;20408;-56
2023/09/08 04:32:46;;;;;;;13.52;8.15;;;;;;;;;;5072557;28;20044;-58
2023/09/08 04:35:13;;;;;;;17.13;9.02;;;;;;;;;;5072512;28;20058;-55
2023/09/08 04:37:40;;;;;;;14.93;8.90;;;;;;;;;;5072632;28;20044;-58
2023/09/08 04:40:08;;;;;;;11.75;9.23;;;;;;;;;;5072163;28;20044;-58
2023/09/08 04:42:34;;;;;;;18.50;9.32;;;;;;;;;;5072154;28;20098;-58
2023/09/08 04:45:01;;;;;;;15.30;8.68;;;;;;;;;;5072366;28;20052;-57
2023/09/08 04:47:28;;;;;;;16.23;9.13;;;;;;;;;;5072805;28;20060;-60
2023/09/08 04:49:56;;;;;;;15.38;9.10;;;;;;;;;;5072373;28;20049;-60
2023/09/08 04:52:22;;;;;;;14.13;9.05;;;;;;;;;;5072250;28;20047;-58
2023/09/08 04:54:49;;;;;;;12.18;9.30;;;;;;;;;;5072198;28;20065;-57
2023/09/08 04:57:15;;;;;;;14.60;9.30;;;;;;;;;;5072024;28;20131;-58
2023/09/08 04:59:42;;;;;;;15.50;9.35;;;;;;;;;;5071975;28;20041;-58
2023/09/08 05:02:09;;;;;;;14.05;8.80;;;;;;;;;;5065381;28;20063;-56
2023/09/08 05:04:35;;;;;;;13.18;9.55;;;;;;;;;;5066521;28;20051;-56
2023/09/08 05:07:03;;;;;;;14.57;8.75;;;;;;;;;;5064240;28;20045;-57
2023/09/08 05:09:30;;;;;;;13.15;8.85;;;;;;;;;;5065233;28;20132;-57
2023/09/08 05:11:59;;;;;;;12.07;8.90;;;;;;;;;;5064712;28;20047;-59
2023/09/08 05:14:25;;;;;;;15.32;9.07;;;;;;;;;;5068256;28;20086;-56
2023/09/08 05:16:55;;;;;;;11.50;8.90;;;;;;;;;;5071897;28;20045;-58
2023/09/08 05:19:22;;;;;;;12.32;9.35;;;;;;;;;;5064412;28;20055;-56
2023/09/08 05:21:51;;;;;;;11.85;8.63;;;;;;;;;;5051935;28;20128;-59
2023/09/08 05:24:20;;;;;;;12.88;8.48;;;;;;;;;;5061151;28;20045;-60
2023/09/08 05:26:47;;;;;;;12.93;9.48;;;;;;;;;;5063100;28;20090;-58
2023/09/08 05:29:14;;;;;;;11.73;8.75;;;;;;;;;;5071295;28;20046;-59
2023/09/08 05:31:41;;;;;;;13.65;9.18;;;;;;;;;;5063406;28;20055;-56
2023/09/08 05:34:07;;;;;;;14.88;10.40;;;;;;;;;;5066218;28;20036;-55
2023/09/08 05:36:35;;;;;;;14.85;9.82;;;;;;;;;;5063755;28;20052;-59
2023/09/08 05:39:02;;;;;;;14.27;9.65;;;;;;;;;;5061032;28;20071;-58
2023/09/08 05:41:30;;;;;;;15.75;9.73;;;;;;;;;;5065424;28;20409;-59
2023/09/08 05:43:56;;;;;;;11.88;9.63;;;;;;;;;;5059821;28;20053;-61
2023/09/08 05:46:23;;;;;;;11.38;9.13;;;;;;;;;;5061478;28;20045;-57
2023/09/08 05:48:50;;;;;;;13.55;9.50;;;;;;;;;;5065629;28;20040;-58
2023/09/08 05:51:16;;;;;;;15.30;10.00;;;;;;;;;;5064844;28;20052;-58
2023/09/08 05:53:43;;;;;;;14.45;10.20;;;;;;;;;;5061111;28;20047;-57
2023/09/08 05:56:11;;;;;;;13.13;9.82;;;;;;;;;;5067399;28;20413;-61
2023/09/08 05:58:39;;;;;;;13.18;9.23;;;;;;;;;;5063001;28;20047;-65
2023/09/08 06:01:06;;;;;;;14.23;9.68;;;;;;;;;;5064563;28;20486;-59
2023/09/08 06:03:33;;;;;;;15.45;10.40;;;;;;;;;;5062027;28;20541;-56
2023/09/08 06:06:00;;;;;;;13.23;9.52;;;;;;;;;;5066557;28;20041;-57
2023/09/08 06:08:26;;;;;;;15.75;9.18;;;;;;;;;;5067831;28;20044;-56
2023/09/08 06:10:53;;;;;;;14.57;9.57;;;;;;;;;;5071329;28;20056;-54
2023/09/08 06:13:20;;;;;;;15.93;10.68;;;;;;;;;;5071526;28;20398;-52
2023/09/08 06:15:48;;;;;;;17.08;11.20;;;;;;;;;;5071315;28;20049;-60
2023/09/08 06:18:14;;;;;;;14.88;11.02;;;;;;;;;;5071469;28;20550;-58
2023/09/08 06:20:45;;;;;;;16.55;10.25;;;;;;;;;;5071539;28;20070;-59
2023/09/08 06:23:12;;;;;;;19.90;10.60;;;;;;;;;;5071455;28;20041;-56
2023/09/08 06:25:39;;;;;;;16.05;11.30;;;;;;;;;;5071315;28;20067;-60
2023/09/08 06:28:06;;;;;;;14.45;9.70;;;;;;;;;;5071256;28;20049;-53
2023/09/08 06:30:32;;;;;;;15.43;10.95;;;;;;;;;;5071244;28;20071;-55
2023/09/08 06:33:00;;;;;;;15.93;11.73;;;;;;;;;;5071343;28;20482;-57
2023/09/08 06:35:27;;;;;;;16.33;12.38;;;;;;;;;;5071230;28;20419;-55
2023/09/08 06:37:54;;;;;;;17.05;11.88;;;;;;;;;;5069927;28;20055;-56
2023/09/08 06:40:20;;;;;;;19.67;12.10;;;;;;;;;;5060660;28;20054;-56
2023/09/08 06:42:47;;;;;;;17.67;12.52;;;;;;;;;;5062559;28;20521;-58
2023/09/08 06:45:14;;;;;;;17.38;12.60;;;;;;;;;;5057161;28;20083;-60
2023/09/08 06:47:41;;;;;;;19.83;11.52;;;;;;;;;;5067630;22;20497;-60
2023/09/08 06:50:10;;;;;;;20.67;12.98;;;;;;;;;;5043487;28;20603;-56
2023/09/08 06:52:37;;;;;;;18.05;13.02;;;;;;;;;;5046366;28;20112;-58
2023/09/08 06:55:05;;;;;;;17.58;13.27;;;;;;;;;;5053041;28;20051;-57
2023/09/08 06:57:31;;;;;;;21.27;12.43;;;;;;;;;;5046805;28;20056;-58
2023/09/08 06:59:58;;;;;;;20.50;12.77;;;;;;;;;;5044518;28;20044;-58
2023/09/08 07:02:24;;;;;;;18.85;13.68;;;;;;;;;;5040525;28;20044;-58
2023/09/08 07:04:51;;;;;;;15.93;12.38;;;;;;;;;;5043338;28;20041;-58
2023/09/08 07:07:20;;;;;;;21.02;14.10;;;;;;;;;;5050907;28;20060;-58
2023/09/08 07:09:47;;;;;;;18.40;13.65;;;;;;;;;;5048138;28;20414;-58
2023/09/08 07:12:13;;;;;;;20.95;14.65;;;;;;;;;;5048473;28;20061;-58
2023/09/08 07:14:40;;;;;;;20.65;14.30;;;;;;;;;;5048894;28;20478;-59
2023/09/08 07:17:06;;;;;;;21.45;15.77;;;;;;;;;;5050621;28;20050;-59
2023/09/08 07:19:33;;;;;;;21.73;15.68;;;;;;;;;;5046334;28;20337;-57
2023/09/08 07:21:59;;;;;;;21.60;15.07;;;;;;;;;;5042128;28;20410;-57
2023/09/08 07:24:27;;;;;;;23.52;17.17;;;;;;;;;;5046757;28;20049;-58
2023/09/08 07:26:54;;;;;;;23.55;16.45;;;;;;;;;;5048109;28;20060;-59
2023/09/08 07:29:21;;;;;;;22.10;15.10;;;;;;;;;;5050857;28;20060;-57
2023/09/08 07:31:47;;;;;;;23.58;16.52;;;;;;;;;;5050614;28;20490;-58
2023/09/08 07:34:14;;;;;;;22.42;15.80;;;;;;;;;;5050348;28;20061;-58
2023/09/08 07:36:40;;;;;;;20.90;14.00;;;;;;;;;;5048543;28;20048;-57
2023/09/08 07:39:07;;;;;;;24.05;13.80;;;;;;;;;;5050066;28;20048;-58
2023/09/08 07:41:36;;;;;;;19.20;13.98;;;;;;;;;;5050396;28;20064;-57
2023/09/08 07:44:02;;;;;;;18.77;13.15;;;;;;;;;;5049535;28;20049;-58
2023/09/08 07:46:29;;;;;;;21.08;13.13;;;;;;;;;;5049732;28;20454;-58
2023/09/08 07:48:56;;;;;;;16.00;12.75;;;;;;;;;;5050333;28;20529;-58
2023/09/08 07:51:22;;;;;;;20.23;14.15;;;;;;;;;;5039514;28;20493;-57
2023/09/08 07:53:49;;;;;;;20.33;14.32;;;;;;;;;;5044246;28;20056;-57
2023/09/08 07:56:15;;;;;;;17.80;13.18;;;;;;;;;;5047397;28;20053;-59
2023/09/08 07:58:56;;;;;;;16.40;12.73;;;;;;;;;;5049364;28;20037;-59
2023/09/08 08:01:23;;;;;;;21.10;13.52;;;;;;;;;;5045818;28;20041;-58
2023/09/08 08:03:50;;;;;;;18.85;13.00;;;;;;;;;;5049541;28;20478;-59
2023/09/08 08:06:16;;;;;;;18.35;13.05;;;;;;;;;;5049717;28;20045;-60
2023/09/08 08:08:43;;;;;;;21.10;15.23;;;;;;;;;;5049804;28;20049;-58
2023/09/08 08:11:11;;;;;;;23.15;15.27;;;;;;;;;;5049627;28;20045;-59
2023/09/08 08:13:38;;;;;;;21.15;14.82;;;;;;;;;;5050134;28;20140;-59
2023/09/08 08:16:06;;;;;;;20.92;14.25;;;;;;;;;;5049643;28;20048;-56
2023/09/08 08:18:33;;;;;;;18.73;15.10;;;;;;;;;;5047202;28;20053;-57
2023/09/08 08:21:00;;;;;;;19.40;13.90;;;;;;;;;;5047453;28;20053;-54
2023/09/08 08:23:27;;;;;;;21.58;13.82;;;;;;;;;;5048405;28;20056;-56
2023/09/08 08:25:53;;;;;;;25.65;15.30;;;;;;;;;;5047103;28;20059;-58
2023/09/08 08:28:20;;;;;;;22.60;15.55;;;;;;;;;;5049433;28;20227;-56
2023/09/08 08:30:47;;;;;;;20.25;14.15;;;;;;;;;;5047194;28;20062;-58
2023/09/08 08:33:15;;;;;;;22.30;15.38;;;;;;;;;;5049740;28;20444;-57
2023/09/08 08:35:41;;;;;;;20.48;13.88;;;;;;;;;;5049251;28;20055;-57
2023/09/08 08:38:08;;;;;;;21.05;14.20;;;;;;;;;;5049425;28;20049;-58
2023/09/08 08:40:39;;;;;;;21.63;15.02;;;;;;;;;;5046894;28;20581;-60
2023/09/08 08:43:05;;;;;;;19.65;13.75;;;;;;;;;;5048028;28;20045;-58
2023/09/08 08:45:34;;;;;;;18.05;13.57;;;;;;;;;;5045596;28;20056;-59
2023/09/08 08:48:02;;;;;;;21.17;13.75;;;;;;;;;;5047861;28;20076;-58
2023/09/08 08:50:32;;;;;;;19.55;13.73;;;;;;;;;;5048854;28;20055;-57
2023/09/08 08:52:59;;;;;;;21.70;13.85;;;;;;;;;;5048375;28;20051;-58
2023/09/08 08:55:26;;;;;;;16.58;13.15;;;;;;;;;;5046245;28;20048;-58
2023/09/08 08:57:54;;;;;;;21.52;13.95;;;;;;;;;;5046383;28;20499;-57
2023/09/08 09:00:21;;;;;;;17.60;12.90;;;;;;;;;;5046521;28;20049;-59
2023/09/08 09:02:50;;;;;;;18.30;13.48;;;;;;;;;;5045358;28;20175;-58
2023/09/08 09:05:17;;;;;;;16.42;12.50;;;;;;;;;;5044517;28;20049;-58
2023/09/08 09:07:45;;;;;;;22.70;14.23;;;;;;;;;;5047422;28;20127;-61
2023/09/08 09:10:12;;;;;;;34.92;19.63;;;;;;;;;;5045767;28;20055;-66
2023/09/08 09:12:39;;;;;;;62.80;34.35;;;;;;;;;;5044504;28;20402;-58
2023/09/08 09:15:29;;;;;;;26.15;17.30;;;;;;;;;;5045153;28;20045;-61
2023/09/08 09:18:06;;;;;;;23.00;15.65;;;;;;;;;;5042324;28;20045;-63
2023/09/08 09:20:33;;;;;;;29.83;17.15;;;;;;;;;;5039098;28;20478;-58
2023/09/08 09:23:01;;;;;;;21.60;13.85;;;;;;;;;;5048735;28;20424;-58
2023/09/08 09:28:11;;;;;;;20.15;13.10;;;;;;;;;;5046167;28;20049;-57
2023/09/08 09:31:06;;;;;;;21.05;14.32;;;;;;;;;;5048354;28;20051;-58
2023/09/08 09:33:33;;;;;;;21.40;13.93;;;;;;;;;;5041362;28;20060;-55
2023/09/08 09:36:01;;;;;;;15.98;12.18;;;;;;;;;;5048662;28;20098;-54
2023/09/08 09:38:29;;;;;;;16.10;11.63;;;;;;;;;;5048585;28;20110;-59
2023/09/08 09:40:56;;;;;;;18.73;12.20;;;;;;;;;;5046250;28;20131;-57
2023/09/08 09:43:23;;;;;;;19.20;13.10;;;;;;;;;;5050150;28;20070;-60
2023/09/08 09:45:50;;;;;;;17.90;12.38;;;;;;;;;;5050277;28;20041;-60
2023/09/08 09:48:19;;;;;;;17.20;11.98;;;;;;;;;;5050181;28;20395;-60
2023/09/08 09:50:46;;;;;;;18.40;12.38;;;;;;;;;;5049928;28;20057;-57
2023/09/08 09:53:14;;;;;;;15.52;12.55;;;;;;;;;;5049946;28;20409;-58
2023/09/08 09:55:44;;;;;;;15.93;12.02;;;;;;;;;;5048762;28;20053;-57
2023/09/08 09:58:11;;;;;;;17.27;13.07;;;;;;;;;;5045824;28;20774;-55
2023/09/08 10:00:40;;;;;;;21.40;13.80;;;;;;;;;;5043716;28;20128;-54
2023/09/08 10:03:07;;;;;;;15.73;11.23;;;;;;;;;;5037101;28;20056;-57
2023/09/08 10:05:34;;;;;;;16.40;10.90;;;;;;;;;;5049269;28;20050;-60
2023/09/08 10:08:01;;;;;;;15.43;11.57;;;;;;;;;;5046379;28;20052;-59
2023/09/08 10:10:30;;;;;;;16.25;11.30;;;;;;;;;;5048112;28;20045;-59
2023/09/08 10:13:03;;;;;;;17.20;13.23;;;;;;;;;;5049565;28;20044;-60
2023/09/08 10:15:32;;;;;;;19.67;13.88;;;;;;;;;;5049822;28;20048;-58
2023/09/08 10:17:59;;;;;;;16.23;12.13;;;;;;;;;;5050423;28;20491;-59
2023/09/08 10:20:28;;;;;;;15.25;11.73;;;;;;;;;;5049347;28;20072;-60
2023/09/08 10:23:02;;;;;;;15.80;12.07;;;;;;;;;;5049483;28;20056;-60
2023/09/08 10:25:32;;;;;;;16.80;11.88;;;;;;;;;;5050546;28;20048;-59
2023/09/08 10:28:00;;;;;;;16.88;12.25;;;;;;;;;;5053788;28;20045;-60
2023/09/08 10:30:27;;;;;;;14.07;10.65;;;;;;;;;;5053490;28;20052;-60
2023/09/08 10:32:55;;;;;;;15.05;11.73;;;;;;;;;;5053549;28;20138;-60
2023/09/08 10:35:22;;;;;;;18.90;12.43;;;;;;;;;;5053603;28;20409;-60
2023/09/08 10:37:48;;;;;;;14.93;10.77;;;;;;;;;;5053549;28;20053;-60
2023/09/08 10:40:22;;;;;;;16.33;11.75;;;;;;;;;;5053313;28;20045;-59
2023/09/08 10:42:50;;;;;;;18.15;12.00;;;;;;;;;;5053325;28;20045;-59
2023/09/08 10:45:20;;;;;;;22.90;12.57;;;;;;;;;;5053436;28;20114;-59
2023/09/08 10:47:57;;;;;;;21.25;13.90;;;;;;;;;;5052890;28;20092;-60
2023/09/08 10:50:31;;;;;;;21.75;13.77;;;;;;;;;;5053033;28;20510;-60
2023/09/08 10:53:15;;;;;;;15.32;11.63;;;;;;;;;;5053532;28;20429;-59
2023/09/08 10:55:47;;;;;;;15.25;10.75;;;;;;;;;;5053211;28;20056;-60
2023/09/08 10:58:19;;;;;;;13.40;10.13;;;;;;;;;;5053156;28;20500;-60
2023/09/08 11:00:54;;;;;;;14.18;11.20;;;;;;;;;;5052868;28;20505;-60
2023/09/08 11:03:28;;;;;;;13.38;10.82;;;;;;;;;;5052981;28;20049;-60
2023/09/08 11:05:55;;;;;;;12.63;10.07;;;;;;;;;;5052687;28;20052;-60
2023/09/08 11:08:22;;;;;;;15.80;10.50;;;;;;;;;;5052862;28;20131;-61
2023/09/08 11:10:50;;;;;;;11.82;9.60;;;;;;;;;;5052754;28;20558;-60
2023/09/08 11:13:17;;;;;;;11.95;9.60;;;;;;;;;;5052743;28;20136;-61
2023/09/08 11:15:44;;;;;;;13.23;10.32;;;;;;;;;;5052698;28;20558;-60
2023/09/08 11:18:12;;;;;;;14.20;11.05;;;;;;;;;;5052377;28;20140;-59
2023/09/08 11:20:38;;;;;;;13.50;10.30;;;;;;;;;;5052738;28;20045;-60
2023/09/08 11:23:05;;;;;;;11.38;9.02;;;;;;;;;;5052454;28;20562;-60
2023/09/08 11:25:34;;;;;;;12.38;9.98;;;;;;;;;;5052576;28;20051;-60
2023/09/08 11:28:01;;;;;;;11.13;9.35;;;;;;;;;;5052186;28;20044;-59
2023/09/08 11:30:27;;;;;;;16.88;12.57;;;;;;;;;;5052357;28;20091;-61
2023/09/08 11:32:54;;;;;;;15.27;10.48;;;;;;;;;;5052272;28;20048;-61
2023/09/08 11:35:22;;;;;;;13.77;10.00;;;;;;;;;;5053033;28;20047;-60
2023/09/08 11:37:51;;;;;;;11.95;9.23;;;;;;;;;;5051797;28;20132;-60
2023/09/08 11:40:19;;;;;;;10.30;8.93;;;;;;;;;;5052398;28;20052;-60
2023/09/08 11:42:46;;;;;;;13.40;10.45;;;;;;;;;;5052304;28;20068;-60
2023/09/08 11:45:14;;;;;;;12.98;9.60;;;;;;;;;;5052038;28;20049;-61
2023/09/08 11:47:43;;;;;;;12.30;10.25;;;;;;;;;;5051884;28;20048;-61
2023/09/08 11:50:11;;;;;;;11.25;9.45;;;;;;;;;;5052373;28;20338;-61
2023/09/08 11:52:40;;;;;;;11.25;9.07;;;;;;;;;;5052018;28;20449;-60
2023/09/08 11:55:08;;;;;;;12.00;8.88;;;;;;;;;;5051403;28;20052;-60
2023/09/08 11:57:35;;;;;;;12.25;8.85;;;;;;;;;;5052165;28;20132;-61
2023/09/08 12:00:05;;;;;;;11.10;8.85;;;;;;;;;;5051907;28;20148;-60
2023/09/08 12:02:35;;;;;;;11.60;9.10;;;;;;;;;;5052374;28;20049;-61
2023/09/08 12:05:01;;;;;;;;;;;;;;;;;;5052685;28;20047;-61
2023/09/08 12:07:29;;;;;;;10.27;9.18;;;;;;;;;;5051839;28;20028;-61
2023/09/08 12:09:58;;;;;;;10.30;8.90;;;;;;;;;;5051880;28;20151;-61
2023/09/08 12:12:26;;;;;;;10.13;8.60;;;;;;;;;;5051655;28;20041;-60
2023/09/08 12:14:52;;;;;;;12.57;9.23;;;;;;;;;;5051854;28;20461;-60
2023/09/08 12:17:19;;;;;;;10.02;8.38;;;;;;;;;;5051733;28;20049;-58
2023/09/08 12:19:46;;;;;;;14.60;9.45;;;;;;;;;;5051396;28;20482;-60
2023/09/08 12:22:17;;;;;;;10.88;8.77;;;;;;;;;;5051718;28;20053;-61
2023/09/08 12:24:48;;;;;;;9.60;8.50;;;;;;;;;;5051069;28;20095;-60
2023/09/08 12:27:17;;;;;;;12.38;8.57;;;;;;;;;;5051037;28;20052;-61
2023/09/08 12:29:53;;;;;;;11.88;9.02;;;;;;;;;;5051229;28;20061;-61
2023/09/08 12:32:19;;;;;;;10.10;8.50;;;;;;;;;;5051094;28;20045;-61
2023/09/08 12:34:46;;;;;;;11.95;9.38;;;;;;;;;;5051153;28;20072;-61
2023/09/08 12:37:13;;;;;;;9.40;8.43;;;;;;;;;;5051190;28;20524;-60
2023/09/08 12:39:39;;;;;;;8.73;7.57;;;;;;;;;;5050771;28;20045;-60
2023/09/08 12:42:06;;;;;;;8.98;7.97;;;;;;;;;;5050634;28;20056;-59
2023/09/08 12:44:34;;;;;;;8.63;7.70;;;;;;;;;;5051231;28;20569;-61
2023/09/08 12:47:01;;;;;;;10.60;8.60;;;;;;;;;;5050764;28;20045;-60
2023/09/08 12:49:27;;;;;;;10.80;8.55;;;;;;;;;;5049735;28;20049;-60
2023/09/08 12:51:54;;;;;;;8.80;7.90;;;;;;;;;;5067517;22;20518;-55
2023/09/08 12:54:21;;;;;;;9.95;8.40;;;;;;;;;;5055223;28;20409;-58
2023/09/08 12:56:47;;;;;;;10.02;8.60;;;;;;;;;;5061442;28;20476;-56
2023/09/08 12:59:14;;;;;;;9.93;8.07;;;;;;;;;;5063355;28;20131;-56
2023/09/08 13:01:42;;;;;;;9.15;7.72;;;;;;;;;;5052092;28;20135;-55
2023/09/08 13:04:09;;;;;;;11.98;9.27;;;;;;;;;;5043872;28;20041;-56
2023/09/08 13:06:36;;;;;;;8.75;7.82;;;;;;;;;;5038201;28;20049;-55
2023/09/08 13:09:02;;;;;;;10.27;8.65;;;;;;;;;;5048486;28;20143;-55
2023/09/08 13:11:29;;;;;;;9.77;8.75;;;;;;;;;;5040477;28;20127;-56
2023/09/08 13:13:56;;;;;;;10.30;8.15;;;;;;;;;;5043838;28;20096;-56
2023/09/08 13:16:23;;;;;;;10.07;8.93;;;;;;;;;;5048093;28;20060;-56
2023/09/08 13:18:51;;;;;;;12.55;8.85;;;;;;;;;;5041742;28;20480;-58
2023/09/08 13:21:18;;;;;;;9.35;7.75;;;;;;;;;;5039299;28;20056;-59
2023/09/08 13:23:44;;;;;;;11.73;9.40;;;;;;;;;;5041778;28;20053;-56
2023/09/08 13:26:11;;;;;;;9.95;8.95;;;;;;;;;;5039236;28;20077;-61
2023/09/08 13:28:38;;;;;;;9.45;8.45;;;;;;;;;;5038192;28;20103;-56
2023/09/08 13:31:05;;;;;;;9.65;8.73;;;;;;;;;;5046113;28;20144;-58
2023/09/08 13:33:32;;;;;;;10.77;8.70;;;;;;;;;;5040370;28;20056;-58
2023/09/08 13:36:00;;;;;;;12.05;8.90;;;;;;;;;;5037548;28;20229;-57
2023/09/08 13:38:27;;;;;;;11.35;10.05;;;;;;;;;;5039273;28;20051;-55
2023/09/08 13:40:54;;;;;;;10.95;8.82;;;;;;;;;;5043539;28;20083;-57
2023/09/08 13:43:29;;;;;;;9.98;8.85;;;;;;;;;;5038651;28;20080;-57
2023/09/08 13:45:56;;;;;;;10.63;8.77;;;;;;;;;;5020110;28;20049;-56
2023/09/08 13:48:23;;;;;;;11.35;8.40;;;;;;;;;;5039629;28;20041;-57
2023/09/08 13:50:49;;;;;;;9.38;8.35;;;;;;;;;;5042952;28;20044;-59
2023/09/08 13:53:18;;;;;;;8.88;7.97;;;;;;;;;;5045110;28;20048;-56
2023/09/08 13:55:45;;;;;;;9.77;8.57;;;;;;;;;;5041490;28;20056;-55
2023/09/08 13:58:11;;;;;;;9.48;8.10;;;;;;;;;;5038273;28;20308;-57
2023/09/08 14:00:39;;;;;;;9.68;8.07;;;;;;;;;;5043438;28;20421;-55
2023/09/08 14:03:05;;;;;;;9.75;8.45;;;;;;;;;;5049002;28;20041;-54
2023/09/08 14:05:32;;;;;;;11.65;8.27;;;;;;;;;;5047644;28;20044;-56
2023/09/08 14:07:59;;;;;;;9.70;8.60;;;;;;;;;;5046667;28;20132;-58
2023/09/08 14:10:27;;;;;;;9.95;8.25;;;;;;;;;;5046965;28;20067;-53
2023/09/08 14:12:53;;;;;;;9.00;8.10;;;;;;;;;;5046470;28;20438;-58
2023/09/08 14:15:20;;;;;;;9.57;8.52;;;;;;;;;;5041642;28;20043;-58
2023/09/08 14:17:46;;;;;;;8.25;7.28;;;;;;;;;;5046434;28;20057;-59
2023/09/08 14:20:13;;;;;;;9.30;8.10;;;;;;;;;;5045464;28;20513;-54
2023/09/08 14:22:40;;;;;;;8.52;7.65;;;;;;;;;;5049052;28;20597;-57
2023/09/08 14:25:07;;;;;;;8.40;7.60;;;;;;;;;;5044407;28;20102;-58
2023/09/08 14:27:36;;;;;;;9.40;8.40;;;;;;;;;;5044665;28;20057;-58
2023/09/08 14:30:03;;;;;;;9.43;8.48;;;;;;;;;;5045442;28;20041;-59
2023/09/08 14:32:30;;;;;;;9.63;8.63;;;;;;;;;;5048241;28;20090;-58
2023/09/08 14:34:57;;;;;;;9.27;8.00;;;;;;;;;;5046382;28;20623;-57